Weather Data

Pearl Creek Farm: 8878 N Farm Road 75, Walnut Grove MO 65770

<== Previous Day (Monday 31 Dec 2007) | Next Day (Wednesday 02 Jan 2008) ==>

Summary Precipitation Data For Tuesday 01 January 2008

ElementValueUnits
Precipitation0"
Notes(none)
SourceSpringfield-Branson National Airport (SGF)

Summary Temperature Data For Tuesday 01 January 2008

ElementValueUnits
High Temperature28 oF
Low Temperature18 oF
Average Temperature24 oF
High Humidity78 %
Low Humidity40 %
Average Humidity59 %
SourceSpringfield-Branson National Airport (SGF)

Detail Temperature Data For Tuesday 01 January 2008

Date / TimeTemp (F)RH (%)Dew Pt (F)Report Date / TimeSource
2008-01-01 05:52:00 23 78 17.0 2017-12-29 19:14:24.89625 Springfield-Branson National Airport (SGF)
2008-01-01 06:52:00 23 78 17.0 2017-12-29 19:14:24.89625 Springfield-Branson National Airport (SGF)
2008-01-01 07:52:00 23 74 16.0 2017-12-29 19:14:24.89625 Springfield-Branson National Airport (SGF)
2008-01-01 08:52:00 24 68 15.0 2017-12-29 19:14:24.89625 Springfield-Branson National Airport (SGF)
2008-01-01 09:52:00 25 58 12.0 2017-12-29 19:14:24.89625 Springfield-Branson National Airport (SGF)
2008-01-01 10:52:00 24 52 9.0 2017-12-29 19:14:24.89625 Springfield-Branson National Airport (SGF)
2008-01-01 11:52:00 26 46 8.0 2017-12-29 19:14:24.89625 Springfield-Branson National Airport (SGF)
2008-01-01 12:52:00 26 46 8.0 2017-12-29 19:14:24.89625 Springfield-Branson National Airport (SGF)
2008-01-01 13:52:00 28 41 7.0 2017-12-29 19:14:24.89625 Springfield-Branson National Airport (SGF)
2008-01-01 14:52:00 27 43 7.0 2017-12-29 19:14:24.89625 Springfield-Branson National Airport (SGF)
2008-01-01 20:52:00 19 59 7.0 2017-12-29 19:14:24.89625 Springfield-Branson National Airport (SGF)
2008-01-01 21:52:00 19 59 7.0 2017-12-29 19:14:24.89625 Springfield-Branson National Airport (SGF)
2008-01-01 22:52:00 19 59 7.0 2017-12-29 19:14:24.89625 Springfield-Branson National Airport (SGF)
2008-01-01 23:52:00 18 59 6.0 2017-12-29 19:14:24.89625 Springfield-Branson National Airport (SGF)
2008-01-01 01:52:00 28 75 21.0 2017-12-29 19:14:24.89625 Springfield-Branson National Airport (SGF)
2008-01-01 02:52:00 26 78 20.0 2017-12-29 19:14:24.89625 Springfield-Branson National Airport (SGF)
2008-01-01 03:52:00 25 78 19.0 2017-12-29 19:14:24.89625 Springfield-Branson National Airport (SGF)
2008-01-01 04:52:00 24 77 18.0 2017-12-29 19:14:24.89625 Springfield-Branson National Airport (SGF)
2008-01-01 15:52:00 26 40 5.0 2017-12-29 19:14:24.89625 Springfield-Branson National Airport (SGF)
2008-01-01 16:52:00 24 44 5.0 2017-12-29 19:14:24.89625 Springfield-Branson National Airport (SGF)
2008-01-01 17:52:00 23 48 6.0 2017-12-29 19:14:24.89625 Springfield-Branson National Airport (SGF)
2008-01-01 18:52:00 22 50 6.0 2017-12-29 19:14:24.89625 Springfield-Branson National Airport (SGF)
2008-01-01 19:52:00 21 52 6.0 2017-12-29 19:14:24.89625 Springfield-Branson National Airport (SGF)

A total of 23 rows are displayed.